createdAt,value
2019-02-21T00:00:00.219Z,54.20
2019-02-21T00:02:28.871Z,54.20
2019-02-21T00:04:57.230Z,54.20
2019-02-21T00:07:25.712Z,54.20
2019-02-21T00:09:54.265Z,54.30
2019-02-21T00:12:22.771Z,54.20
2019-02-21T00:14:51.227Z,54.20
2019-02-21T00:17:19.721Z,54.20
2019-02-21T00:19:48.295Z,54.30
2019-02-21T00:22:16.571Z,54.30
2019-02-21T00:24:44.875Z,54.20
2019-02-21T00:27:13.229Z,54.20
2019-02-21T00:29:41.553Z,54.20
2019-02-21T00:32:09.946Z,54.30
2019-02-21T00:34:38.498Z,54.30
2019-02-21T00:37:07.003Z,54.30
2019-02-21T00:39:35.363Z,54.30
2019-02-21T00:42:03.732Z,54.30
2019-02-21T00:44:32.101Z,54.30
2019-02-21T00:47:00.487Z,54.30
2019-02-21T00:49:28.856Z,54.40
2019-02-21T00:51:57.247Z,54.50
2019-02-21T00:54:25.741Z,54.40
2019-02-21T00:56:54.083Z,54.50
2019-02-21T00:59:22.437Z,54.40
2019-02-21T01:01:50.736Z,54.40
2019-02-21T01:04:19.027Z,54.50
2019-02-21T01:06:47.391Z,54.50
2019-02-21T01:09:15.785Z,54.50
2019-02-21T01:11:44.266Z,54.50
2019-02-21T01:14:12.630Z,54.40
2019-02-21T01:16:40.995Z,54.40
2019-02-21T01:19:09.364Z,54.40
2019-02-21T01:21:37.725Z,54.40
2019-02-21T01:24:06.306Z,54.40
2019-02-21T01:26:34.657Z,54.50
2019-02-21T01:29:02.958Z,54.30
2019-02-21T01:31:31.334Z,54.30
2019-02-21T01:33:59.712Z,54.40
2019-02-21T01:36:27.998Z,54.80
2019-02-21T01:38:56.379Z,54.30
2019-02-21T01:41:24.732Z,54.40
2019-02-21T01:43:53.040Z,54.30
2019-02-21T01:46:21.326Z,54.30
2019-02-21T01:48:49.636Z,54.30
2019-02-21T01:51:18.010Z,54.30
2019-02-21T01:53:46.317Z,54.20
2019-02-21T01:56:14.597Z,54.30
2019-02-21T01:58:42.904Z,54.70
2019-02-21T02:01:11.278Z,54.20
2019-02-21T02:03:39.702Z,54.30
2019-02-21T02:06:08.307Z,54.20
2019-02-21T02:08:36.680Z,54.20
2019-02-21T02:11:05.058Z,54.20
2019-02-21T02:13:33.518Z,54.20
2019-02-21T02:16:01.839Z,54.20
2019-02-21T02:18:30.388Z,54.20
2019-02-21T02:20:58.790Z,54.20
2019-02-21T02:23:27.100Z,54.20
2019-02-21T02:25:55.488Z,54.20
2019-02-21T02:28:23.801Z,54.20
2019-02-21T02:30:52.146Z,54.20
2019-02-21T02:33:20.531Z,54.20
2019-02-21T02:35:48.866Z,54.10
2019-02-21T02:38:17.240Z,54.10
2019-02-21T02:40:45.611Z,54.10
2019-02-21T02:43:13.999Z,54.10
2019-02-21T02:45:42.355Z,54.10
2019-02-21T02:48:10.735Z,54.10
2019-02-21T02:50:39.079Z,54.10
2019-02-21T02:53:07.380Z,54.10
2019-02-21T02:55:35.661Z,54.10
2019-02-21T02:58:06.423Z,54.10
2019-02-21T03:00:34.383Z,54.00
2019-02-21T03:03:02.746Z,54.00
2019-02-21T03:05:31.105Z,54.10
2019-02-21T03:07:59.405Z,54.00
2019-02-21T03:10:27.718Z,54.00
2019-02-21T03:12:56.026Z,54.00
2019-02-21T03:15:24.400Z,54.50
2019-02-21T03:17:52.696Z,54.00
2019-02-21T03:20:21.099Z,54.00
2019-02-21T03:22:49.536Z,54.00
2019-02-21T03:25:17.918Z,54.00
2019-02-21T03:27:46.266Z,53.90
2019-02-21T03:30:14.570Z,54.00
2019-02-21T03:32:43.010Z,53.90
2019-02-21T03:35:11.383Z,53.90
2019-02-21T03:37:39.833Z,53.90
2019-02-21T03:40:09.591Z,53.90
2019-02-21T03:42:37.942Z,53.90
2019-02-21T03:45:09.810Z,54.00
2019-02-21T03:47:38.169Z,54.00
2019-02-21T03:50:08.916Z,54.00
2019-02-21T03:52:37.208Z,54.00
2019-02-21T03:55:06.623Z,54.50
2019-02-21T03:57:35.057Z,53.90
2019-02-21T04:00:04.279Z,53.90
2019-02-21T04:02:32.628Z,53.90
2019-02-21T04:05:01.007Z,53.90
2019-02-21T04:07:29.370Z,53.90
2019-02-21T04:09:57.655Z,53.90
2019-02-21T04:12:26.072Z,53.90
2019-02-21T04:14:54.357Z,53.90
2019-02-21T04:17:22.658Z,54.50
2019-02-21T04:19:50.948Z,54.00
2019-02-21T04:22:19.242Z,54.00
2019-02-21T04:24:47.638Z,53.90
2019-02-21T04:27:16.038Z,53.80
2019-02-21T04:29:44.615Z,53.90
2019-02-21T04:32:17.059Z,53.90
2019-02-21T04:34:43.100Z,53.90
2019-02-21T04:37:11.544Z,54.00
2019-02-21T04:39:39.909Z,54.00
2019-02-21T04:42:08.191Z,54.00
2019-02-21T04:44:36.592Z,54.00
2019-02-21T04:47:04.940Z,54.10
2019-02-21T04:49:33.253Z,54.20
2019-02-21T04:52:01.624Z,54.10
2019-02-21T04:54:29.990Z,54.20
2019-02-21T04:56:58.362Z,54.20
2019-02-21T04:59:26.732Z,54.20
2019-02-21T05:01:55.095Z,54.20
2019-02-21T05:04:23.505Z,54.20
2019-02-21T05:06:51.863Z,54.20
2019-02-21T05:09:20.249Z,54.20
2019-02-21T05:11:48.615Z,54.20
2019-02-21T05:14:16.986Z,54.20
2019-02-21T05:16:45.358Z,54.20
2019-02-21T05:19:13.735Z,54.20
2019-02-21T05:21:42.304Z,54.20
2019-02-21T05:24:10.674Z,54.20
2019-02-21T05:26:49.986Z,54.20
2019-02-21T05:29:18.347Z,54.20
2019-02-21T05:31:48.353Z,54.20
2019-02-21T05:34:27.355Z,54.40
2019-02-21T05:37:03.312Z,54.30
2019-02-21T05:39:42.248Z,54.30
2019-02-21T05:42:12.255Z,54.00
2019-02-21T05:44:48.451Z,54.40
2019-02-21T05:47:18.439Z,54.40
2019-02-21T05:49:54.192Z,54.40
2019-02-21T05:52:24.129Z,54.40
2019-02-21T05:54:57.048Z,54.60
2019-02-21T05:57:35.987Z,54.50
2019-02-21T06:00:14.124Z,54.50
2019-02-21T06:02:59.077Z,54.50
2019-02-21T06:05:29.074Z,54.60
2019-02-21T06:08:04.791Z,54.60
2019-02-21T06:10:34.786Z,54.60
2019-02-21T06:13:10.811Z,54.70
2019-02-21T06:15:47.021Z,54.80
2019-02-21T06:18:20.006Z,54.70
2019-02-21T06:20:57.718Z,54.90
2019-02-21T06:23:45.892Z,55.00
2019-02-21T06:26:21.595Z,55.10
2019-02-21T06:28:53.450Z,55.30
2019-02-21T06:31:21.780Z,55.50
2019-02-21T06:33:50.180Z,55.70
2019-02-21T06:36:18.551Z,55.90
2019-02-21T06:38:46.906Z,55.90
2019-02-21T06:41:15.267Z,56.10
2019-02-21T06:43:43.688Z,56.20
2019-02-21T06:46:13.796Z,56.30
2019-02-21T06:48:42.080Z,56.40
2019-02-21T06:51:10.396Z,56.60
2019-02-21T06:53:38.760Z,56.60
2019-02-21T06:56:07.161Z,56.70
2019-02-21T06:58:35.592Z,56.90
2019-02-21T07:01:03.900Z,56.90
2019-02-21T07:03:32.257Z,56.90
2019-02-21T07:06:00.633Z,56.90
2019-02-21T07:08:28.995Z,56.90
2019-02-21T07:11:05.785Z,56.90
2019-02-21T07:13:27.318Z,56.90
2019-02-21T07:15:55.679Z,56.90
2019-02-21T07:18:23.958Z,57.00
2019-02-21T07:20:52.281Z,56.90
2019-02-21T07:23:21.207Z,57.00
2019-02-21T07:25:50.810Z,57.10
2019-02-21T07:28:19.260Z,57.10
2019-02-21T07:30:48.341Z,57.10
2019-02-21T07:33:27.767Z,57.10
2019-02-21T07:35:46.673Z,57.20
2019-02-21T07:38:17.089Z,57.30
2019-02-21T07:40:45.149Z,57.20
2019-02-21T07:43:13.500Z,57.90
2019-02-21T07:45:41.887Z,57.40
2019-02-21T07:48:10.264Z,57.30
2019-02-21T07:50:38.638Z,57.50
2019-02-21T07:53:07.109Z,57.50
2019-02-21T07:55:35.480Z,58.00
2019-02-21T07:58:04.195Z,57.60
2019-02-21T08:00:32.814Z,57.60
2019-02-21T08:03:01.172Z,57.60
2019-02-21T08:05:29.565Z,57.70
2019-02-21T08:07:57.926Z,57.70
2019-02-21T08:10:33.680Z,57.80
2019-02-21T08:12:56.349Z,57.80
2019-02-21T08:15:27.534Z,57.80
2019-02-21T08:17:54.766Z,57.90
2019-02-21T08:20:33.577Z,57.90
2019-02-21T08:22:53.180Z,57.80
2019-02-21T08:25:21.631Z,57.90
2019-02-21T08:27:50.009Z,57.80
2019-02-21T08:30:18.380Z,57.80
2019-02-21T08:33:00.489Z,57.90
2019-02-21T08:35:29.690Z,57.80
2019-02-21T08:37:58.002Z,57.80
2019-02-21T08:40:26.367Z,57.80
2019-02-21T08:42:54.677Z,57.80
2019-02-21T08:45:23.042Z,57.80
2019-02-21T08:47:51.425Z,57.80
2019-02-21T08:50:22.080Z,57.80
2019-02-21T08:52:49.811Z,57.90
2019-02-21T08:55:18.088Z,57.90
2019-02-21T08:57:46.402Z,58.00
2019-02-21T09:00:15.795Z,58.00
2019-02-21T09:02:44.085Z,58.00
2019-02-21T09:05:13.190Z,58.00
2019-02-21T09:07:41.556Z,58.10
2019-02-21T09:10:11.764Z,58.10
2019-02-21T09:12:40.137Z,58.00
2019-02-21T09:15:11.515Z,58.00
2019-02-21T09:17:39.903Z,58.10
2019-02-21T09:20:09.791Z,58.00
2019-02-21T09:22:38.379Z,58.10
2019-02-21T09:25:09.614Z,58.00
2019-02-21T09:27:37.963Z,58.00
2019-02-21T09:30:12.075Z,58.00
2019-02-21T09:32:54.636Z,58.00
2019-02-21T09:35:23.029Z,58.00
2019-02-21T09:37:51.433Z,58.20
2019-02-21T09:40:19.773Z,58.40
2019-02-21T09:42:48.136Z,58.60
2019-02-21T09:45:18.148Z,59.00
2019-02-21T09:47:46.451Z,59.50
2019-02-21T09:50:14.822Z,60.50
2019-02-21T09:52:43.131Z,62.20
2019-02-21T09:55:16.583Z,63.00
2019-02-21T09:57:44.924Z,63.50
2019-02-21T10:00:18.322Z,64.10
2019-02-21T10:02:46.665Z,64.30
2019-02-21T10:05:14.970Z,64.40
2019-02-21T10:07:43.375Z,64.40
2019-02-21T10:10:19.309Z,64.40
2019-02-21T10:12:47.803Z,64.30
2019-02-21T10:15:16.749Z,64.30
2019-02-21T10:17:45.124Z,64.40
2019-02-21T10:20:22.862Z,64.30
2019-02-21T10:22:51.273Z,64.00
2019-02-21T10:25:23.202Z,63.80
2019-02-21T10:27:51.833Z,63.70
2019-02-21T10:30:22.347Z,63.40
2019-02-21T10:32:50.809Z,63.30
2019-02-21T10:35:19.097Z,63.20
2019-02-21T10:37:47.390Z,63.10
2019-02-21T10:40:16.371Z,63.10
2019-02-21T10:42:44.723Z,63.00
2019-02-21T10:45:14.866Z,63.20
2019-02-21T10:47:43.232Z,63.10
2019-02-21T10:50:15.043Z,63.30
2019-02-21T10:52:43.403Z,63.30
2019-02-21T10:55:11.841Z,63.30
2019-02-21T10:57:40.149Z,63.30
2019-02-21T11:00:11.763Z,63.30
2019-02-21T11:02:40.070Z,63.30
2019-02-21T11:05:09.693Z,63.20
2019-02-21T11:07:38.071Z,63.10
2019-02-21T11:10:09.355Z,63.00
2019-02-21T11:12:37.766Z,63.10
2019-02-21T11:15:14.516Z,63.20
2019-02-21T11:17:42.887Z,63.20
2019-02-21T11:20:19.121Z,63.20
2019-02-21T11:22:47.508Z,63.20
2019-02-21T11:25:15.884Z,63.20
2019-02-21T11:27:44.274Z,63.90
2019-02-21T11:30:18.104Z,63.00
2019-02-21T11:32:46.402Z,63.00
2019-02-21T11:35:14.773Z,62.80
2019-02-21T11:37:46.562Z,62.90
2019-02-21T11:40:14.857Z,62.70
2019-02-21T11:42:43.634Z,62.60
2019-02-21T11:45:16.087Z,62.50
2019-02-21T11:47:44.500Z,62.50
2019-02-21T11:50:17.962Z,62.30
2019-02-21T11:52:46.315Z,62.30
2019-02-21T11:55:17.939Z,62.10
2019-02-21T11:57:46.422Z,62.00
2019-02-21T12:00:19.877Z,61.90
2019-02-21T12:02:48.218Z,61.90
2019-02-21T12:05:17.757Z,61.80
2019-02-21T12:07:46.438Z,61.80
2019-02-21T12:10:14.750Z,61.80
2019-02-21T12:12:43.041Z,61.80
2019-02-21T12:15:15.704Z,61.80
2019-02-21T12:17:43.987Z,61.80
2019-02-21T12:20:17.139Z,61.70
2019-02-21T12:22:45.500Z,61.70
2019-02-21T12:25:16.784Z,61.70
2019-02-21T12:27:45.139Z,61.60
2019-02-21T12:30:18.031Z,61.60
2019-02-21T12:32:46.479Z,61.50
2019-02-21T12:35:14.845Z,61.50
2019-02-21T12:37:43.143Z,61.60
2019-02-21T12:40:14.259Z,61.60
2019-02-21T12:42:42.648Z,61.50
2019-02-21T12:45:15.714Z,61.40
2019-02-21T12:47:50.912Z,61.50
2019-02-21T12:50:14.497Z,61.30
2019-02-21T12:52:42.866Z,61.30
2019-02-21T12:55:11.698Z,61.40
2019-02-21T12:57:40.058Z,61.40
2019-02-21T13:00:11.706Z,61.40
2019-02-21T13:02:40.074Z,61.40
2019-02-21T13:05:08.454Z,61.30
2019-02-21T13:07:36.804Z,62.20
2019-02-21T13:10:08.344Z,61.30
2019-02-21T13:12:36.704Z,61.20
2019-02-21T13:15:07.340Z,61.30
2019-02-21T13:17:35.719Z,61.30
2019-02-21T13:20:06.736Z,61.70
2019-02-21T13:22:35.026Z,61.30
2019-02-21T13:25:03.329Z,61.30
2019-02-21T13:27:31.696Z,61.30
2019-02-21T13:30:00.326Z,61.30
2019-02-21T13:32:28.957Z,61.30
2019-02-21T13:34:57.328Z,61.20
2019-02-21T13:37:28.776Z,61.40
2019-02-21T13:39:55.742Z,61.30
2019-02-21T13:42:24.015Z,61.30
2019-02-21T13:44:52.321Z,61.20
2019-02-21T13:47:20.680Z,61.20
2019-02-21T13:49:48.983Z,61.30
2019-02-21T13:52:17.439Z,61.30
2019-02-21T13:54:45.868Z,61.30
2019-02-21T13:57:14.222Z,61.30
2019-02-21T13:59:42.599Z,61.20
2019-02-21T14:02:10.967Z,61.10
2019-02-21T14:04:39.519Z,60.50
2019-02-21T14:07:07.824Z,60.20
2019-02-21T14:09:37.987Z,60.10
2019-02-21T14:12:06.163Z,60.10
2019-02-21T14:14:34.493Z,60.10
2019-02-21T14:17:02.852Z,60.10
2019-02-21T14:19:31.174Z,59.90
2019-02-21T14:21:59.547Z,59.80
2019-02-21T14:24:36.282Z,59.80
2019-02-21T14:26:57.948Z,59.70
2019-02-21T14:29:26.339Z,59.60
2019-02-21T14:31:54.813Z,59.60
2019-02-21T14:34:23.240Z,59.60
2019-02-21T14:36:51.784Z,59.60
2019-02-21T14:39:20.214Z,59.60
2019-02-21T14:41:48.608Z,59.60
2019-02-21T14:44:17.102Z,59.60
2019-02-21T14:46:45.434Z,59.50
2019-02-21T14:49:13.875Z,59.50
2019-02-21T14:51:42.249Z,59.40
2019-02-21T14:54:10.595Z,59.40
2019-02-21T14:56:38.892Z,59.40
2019-02-21T14:59:07.175Z,59.40
2019-02-21T15:01:35.554Z,59.30
2019-02-21T15:04:04.056Z,59.30
2019-02-21T15:06:32.559Z,59.30
2019-02-21T15:09:00.979Z,59.30
2019-02-21T15:11:29.292Z,59.30
2019-02-21T15:13:57.664Z,59.30
2019-02-21T15:16:26.043Z,59.30
2019-02-21T15:18:55.432Z,59.30
2019-02-21T15:21:23.810Z,59.20
2019-02-21T15:23:52.197Z,59.20
2019-02-21T15:26:20.623Z,59.30
2019-02-21T15:28:49.035Z,59.20
2019-02-21T15:31:17.375Z,59.20
2019-02-21T15:33:45.758Z,59.30
2019-02-21T15:36:14.121Z,59.20
2019-02-21T15:38:48.412Z,59.20
2019-02-21T15:41:16.714Z,59.10
2019-02-21T15:43:45.023Z,59.20
2019-02-21T15:46:13.495Z,59.20
2019-02-21T15:48:44.415Z,59.50
2019-02-21T15:51:11.891Z,59.10
2019-02-21T15:53:40.257Z,59.10
2019-02-21T15:56:08.578Z,59.10
2019-02-21T15:58:36.930Z,59.70
2019-02-21T16:01:05.304Z,59.10
2019-02-21T16:03:33.659Z,59.10
2019-02-21T16:06:02.038Z,59.10
2019-02-21T16:08:30.422Z,59.10
2019-02-21T16:10:58.774Z,59.10
2019-02-21T16:13:27.452Z,59.10
2019-02-21T16:15:55.942Z,59.10
2019-02-21T16:18:24.239Z,59.00
2019-02-21T16:20:53.106Z,59.10
2019-02-21T16:23:21.511Z,59.10
2019-02-21T16:25:49.957Z,59.10
2019-02-21T16:28:18.340Z,59.10
2019-02-21T16:30:46.711Z,59.10
2019-02-21T16:33:15.076Z,59.00
2019-02-21T16:35:45.019Z,59.00
2019-02-21T16:38:13.770Z,59.00
2019-02-21T16:40:42.052Z,59.00
2019-02-21T16:43:11.245Z,59.00
2019-02-21T16:45:43.407Z,59.00
2019-02-21T16:48:09.565Z,59.00
2019-02-21T16:50:38.815Z,59.00
2019-02-21T16:53:07.107Z,59.00
2019-02-21T16:55:35.403Z,59.00
2019-02-21T16:58:03.709Z,59.00
2019-02-21T17:00:47.339Z,59.00
2019-02-21T17:03:02.136Z,58.90
2019-02-21T17:05:30.627Z,58.90
2019-02-21T17:07:58.975Z,58.90
2019-02-21T17:10:27.263Z,58.90
2019-02-21T17:13:02.518Z,58.80
2019-02-21T17:15:31.674Z,58.70
2019-02-21T17:18:03.743Z,58.70
2019-02-21T17:20:30.474Z,58.50
2019-02-21T17:22:59.187Z,58.40
2019-02-21T17:25:28.143Z,58.40
2019-02-21T17:38:38.792Z,58.30
2019-02-21T17:41:07.148Z,58.20
2019-02-21T17:43:35.518Z,58.20
2019-02-21T17:46:03.894Z,58.20
2019-02-21T17:48:32.214Z,58.20
2019-02-21T17:51:00.566Z,58.20
2019-02-21T17:53:28.916Z,58.30
2019-02-21T17:55:57.298Z,58.30
2019-02-21T17:58:25.660Z,58.30
2019-02-21T18:00:54.040Z,58.60
2019-02-21T18:03:22.422Z,58.60
2019-02-21T18:05:50.792Z,58.80
2019-02-21T18:08:19.241Z,58.80
2019-02-21T18:10:47.639Z,59.00
2019-02-21T18:13:16.179Z,59.10
2019-02-21T18:15:44.522Z,59.20
2019-02-21T18:18:12.964Z,59.30
2019-02-21T18:20:41.269Z,59.40
2019-02-21T18:23:09.721Z,59.30
2019-02-21T18:25:44.071Z,59.50
2019-02-21T18:28:12.465Z,59.60
2019-02-21T18:30:40.907Z,59.60
2019-02-21T18:33:09.198Z,59.70
2019-02-21T18:35:37.721Z,59.70
2019-02-21T18:38:06.028Z,59.80
2019-02-21T18:40:34.347Z,59.80
2019-02-21T18:43:02.645Z,59.90
2019-02-21T18:45:31.021Z,59.90
2019-02-21T18:47:59.485Z,59.90
2019-02-21T18:50:37.684Z,59.90
2019-02-21T18:52:57.909Z,60.00
2019-02-21T18:55:26.271Z,60.00
2019-02-21T18:57:54.652Z,60.10
2019-02-21T19:00:25.977Z,60.10
2019-02-21T19:02:54.293Z,60.10
2019-02-21T19:05:22.657Z,60.10
2019-02-21T19:07:58.845Z,60.10
2019-02-21T19:10:22.370Z,60.10
2019-02-21T19:12:50.811Z,60.20
2019-02-21T19:15:20.349Z,60.10
2019-02-21T19:17:48.766Z,60.20
2019-02-21T19:20:18.554Z,60.20
2019-02-21T19:22:46.941Z,60.10
2019-02-21T19:25:15.323Z,60.10
2019-02-21T19:27:43.942Z,60.10
2019-02-21T19:30:18.256Z,60.10
2019-02-21T19:32:46.734Z,60.10
2019-02-21T19:35:15.682Z,60.10
2019-02-21T19:37:44.052Z,60.20
2019-02-21T19:40:12.426Z,60.10
2019-02-21T19:42:40.914Z,60.20
2019-02-21T19:45:09.570Z,60.20
2019-02-21T19:47:37.929Z,60.40
2019-02-21T19:50:08.371Z,60.40
2019-02-21T19:52:36.781Z,60.40
2019-02-21T19:55:07.504Z,60.40
2019-02-21T19:57:35.884Z,60.50
2019-02-21T20:00:06.021Z,60.50
2019-02-21T20:02:34.453Z,60.60
2019-02-21T20:05:02.900Z,60.60
2019-02-21T20:07:31.267Z,60.80
2019-02-21T20:09:59.631Z,60.90
2019-02-21T20:12:28.214Z,61.10
2019-02-21T20:14:56.505Z,61.10
2019-02-21T20:17:24.987Z,61.10
2019-02-21T20:19:53.362Z,61.10
2019-02-21T20:22:21.814Z,61.20
2019-02-21T20:24:50.285Z,61.10
2019-02-21T20:27:18.649Z,61.30
2019-02-21T20:30:08.102Z,61.40
2019-02-21T20:32:36.462Z,61.50
2019-02-21T20:35:05.627Z,61.50
2019-02-21T20:37:34.051Z,61.60
2019-02-21T20:40:02.536Z,61.80
2019-02-21T20:42:31.671Z,61.90
2019-02-21T20:45:00.185Z,62.00
2019-02-21T20:47:28.810Z,62.10
2019-02-21T20:49:57.214Z,62.20
2019-02-21T20:52:25.636Z,62.30
2019-02-21T20:54:54.021Z,62.30
2019-02-21T20:57:22.388Z,62.30
2019-02-21T20:59:50.878Z,62.40
2019-02-21T21:02:19.276Z,62.50
2019-02-21T21:04:47.884Z,62.60
2019-02-21T21:07:24.863Z,62.60
2019-02-21T21:09:46.398Z,62.70
2019-02-21T21:12:14.980Z,63.00
2019-02-21T21:14:43.334Z,62.90
2019-02-21T21:17:11.778Z,62.90
2019-02-21T21:19:40.153Z,63.00
2019-02-21T21:22:08.511Z,62.90
2019-02-21T21:24:36.905Z,63.00
2019-02-21T21:27:05.402Z,63.00
2019-02-21T21:29:33.703Z,63.20
2019-02-21T21:32:02.005Z,63.20
2019-02-21T21:34:30.303Z,63.20
2019-02-21T21:36:58.604Z,63.20
2019-02-21T21:39:26.907Z,63.40
2019-02-21T21:41:55.342Z,63.40
2019-02-21T21:44:23.733Z,63.40
2019-02-21T21:46:52.028Z,63.40
2019-02-21T21:49:20.405Z,63.50
2019-02-21T21:51:48.789Z,63.50
2019-02-21T21:54:17.259Z,63.40
2019-02-21T21:56:45.667Z,63.40
2019-02-21T21:59:13.994Z,63.50
2019-02-21T22:01:42.411Z,63.50
2019-02-21T22:04:10.813Z,63.50
2019-02-21T22:06:39.176Z,63.50
2019-02-21T22:09:07.494Z,63.60
2019-02-21T22:11:35.856Z,63.60
2019-02-21T22:14:04.164Z,63.60
2019-02-21T22:16:32.580Z,63.50
2019-02-21T22:19:00.976Z,63.50
2019-02-21T22:21:29.296Z,63.50
2019-02-21T22:23:57.612Z,63.60
2019-02-21T22:26:25.980Z,63.60
2019-02-21T22:28:54.476Z,63.60
2019-02-21T22:31:22.812Z,63.60
2019-02-21T22:33:51.142Z,63.60
2019-02-21T22:36:19.697Z,63.60
2019-02-21T22:38:48.234Z,63.50
2019-02-21T22:41:16.625Z,63.50
2019-02-21T22:43:45.044Z,63.50
2019-02-21T22:46:13.483Z,63.50
2019-02-21T22:48:47.280Z,63.60
2019-02-21T22:51:11.852Z,63.60
2019-02-21T22:53:40.568Z,63.50
2019-02-21T22:56:08.926Z,63.40
2019-02-21T22:58:44.657Z,63.60
2019-02-21T23:01:28.300Z,63.50
2019-02-21T23:04:00.011Z,63.50
2019-02-21T23:06:40.583Z,63.50
2019-02-21T23:09:13.169Z,63.50
2019-02-21T23:11:40.698Z,63.50
2019-02-21T23:14:08.991Z,63.50
2019-02-21T23:16:37.360Z,63.40
2019-02-21T23:19:05.722Z,63.50
2019-02-21T23:21:34.094Z,63.50
2019-02-21T23:24:02.404Z,63.50
2019-02-21T23:26:30.779Z,63.40
2019-02-21T23:28:59.067Z,63.40
2019-02-21T23:31:27.365Z,63.40
2019-02-21T23:33:57.398Z,63.30
2019-02-21T23:36:25.698Z,63.40
2019-02-21T23:38:53.988Z,63.30
2019-02-21T23:41:22.407Z,63.20
2019-02-21T23:43:50.687Z,63.20
2019-02-21T23:46:19.077Z,63.20
2019-02-21T23:48:47.427Z,63.10
2019-02-21T23:51:15.791Z,63.00
2019-02-21T23:53:44.086Z,63.00
2019-02-21T23:56:12.445Z,62.90
2019-02-21T23:58:40.921Z,62.90
